createdAt,value
2022-08-09T00:00:13.801Z,18.70
2022-08-09T00:02:42.918Z,18.70
2022-08-09T00:06:19.162Z,18.70
2022-08-09T00:08:12.998Z,18.60
2022-08-09T00:10:59.335Z,18.60
2022-08-09T00:13:26.423Z,18.60
2022-08-09T00:15:58.815Z,18.50
2022-08-09T00:18:27.014Z,18.50
2022-08-09T00:20:55.718Z,18.50
2022-08-09T00:23:55.199Z,18.50
2022-08-09T00:26:11.179Z,18.40
2022-08-09T00:28:38.980Z,18.40
2022-08-09T00:31:30.709Z,18.40
2022-08-09T00:33:54.813Z,18.40
2022-08-09T00:36:29.577Z,18.30
2022-08-09T00:38:58.046Z,18.30
2022-08-09T00:44:14.881Z,18.30
2022-08-09T00:44:20.635Z,18.30
2022-08-09T00:46:57.701Z,18.20
2022-08-09T00:49:31.782Z,18.20
2022-08-09T00:52:02.049Z,18.10
2022-08-09T00:54:36.236Z,18.10
2022-08-09T00:57:10.272Z,18.00
2022-08-09T00:59:46.670Z,18.00
2022-08-09T01:02:21.786Z,17.90
2022-08-09T01:05:13.968Z,17.90
2022-08-09T01:08:01.187Z,17.90
2022-08-09T01:10:39.391Z,17.90
2022-08-09T01:13:12.613Z,17.80
2022-08-09T01:15:52.150Z,17.80
2022-08-09T01:18:29.766Z,17.70
2022-08-09T01:21:41.182Z,17.70
2022-08-09T01:24:20.831Z,17.70
2022-08-09T01:26:52.767Z,17.70
2022-08-09T01:29:41.323Z,17.70
2022-08-09T01:32:32.698Z,17.60
2022-08-09T01:35:29.136Z,17.60
2022-08-09T01:38:09.273Z,17.60
2022-08-09T01:41:05.156Z,17.60
2022-08-09T01:43:41.949Z,17.60
2022-08-09T01:46:26.975Z,17.50
2022-08-09T01:48:59.923Z,17.50
2022-08-09T01:51:32.168Z,17.50
2022-08-09T01:54:04.174Z,17.50
2022-08-09T01:56:33.213Z,17.40
2022-08-09T01:59:05.755Z,17.40
2022-08-09T02:01:59.208Z,17.40
2022-08-09T02:04:25.487Z,17.30
2022-08-09T02:07:08.614Z,17.30
2022-08-09T02:09:59.491Z,17.30
2022-08-09T02:12:30.757Z,17.30
2022-08-09T02:15:00.624Z,17.20
2022-08-09T02:18:00.652Z,17.20
2022-08-09T02:20:26.562Z,17.20
2022-08-09T02:23:12.623Z,17.20
2022-08-09T02:25:52.635Z,17.20
2022-08-09T02:28:39.357Z,17.20
2022-08-09T02:31:25.879Z,17.20
2022-08-09T02:34:06.526Z,17.10
2022-08-09T02:36:43.496Z,17.10
2022-08-09T02:39:20.332Z,17.10
2022-08-09T02:42:05.750Z,17.10
2022-08-09T02:44:38.915Z,17.10
2022-08-09T02:47:11.855Z,17.00
2022-08-09T02:49:56.998Z,17.00
2022-08-09T02:52:55.291Z,17.00
2022-08-09T02:55:39.369Z,16.90
2022-08-09T02:58:32.604Z,16.80
2022-08-09T03:01:06.294Z,16.90
2022-08-09T03:04:18.239Z,16.80
2022-08-09T03:06:27.465Z,16.80
2022-08-09T03:08:55.934Z,16.70
2022-08-09T03:11:30.094Z,16.70
2022-08-09T03:14:13.452Z,16.70
2022-08-09T03:16:45.011Z,16.60
2022-08-09T03:19:14.294Z,16.60
2022-08-09T03:22:03.340Z,16.70
2022-08-09T03:24:42.817Z,16.60
2022-08-09T03:27:21.589Z,16.60
2022-08-09T03:29:57.958Z,16.60
2022-08-09T03:32:36.902Z,16.60
2022-08-09T03:35:14.796Z,16.60
2022-08-09T03:37:56.707Z,16.60
2022-08-09T03:40:25.598Z,16.60
2022-08-09T03:42:58.118Z,16.50
2022-08-09T03:46:03.912Z,16.50
2022-08-09T03:48:12.590Z,16.50
2022-08-09T03:50:46.777Z,16.50
2022-08-09T03:53:15.662Z,16.50
2022-08-09T03:55:43.134Z,16.50
2022-08-09T03:58:14.975Z,16.50
2022-08-09T04:00:45.547Z,16.50
2022-08-09T04:03:24.528Z,16.50
2022-08-09T04:06:00.758Z,16.50
2022-08-09T04:08:34.862Z,16.40
2022-08-09T04:11:02.772Z,16.40
2022-08-09T04:14:36.881Z,16.40
2022-08-09T04:16:20.720Z,16.40
2022-08-09T04:18:49.243Z,16.40
2022-08-09T04:21:19.219Z,16.40
2022-08-09T04:23:53.917Z,16.30
2022-08-09T04:26:23.214Z,16.40
2022-08-09T04:28:50.357Z,16.30
2022-08-09T04:31:17.749Z,16.30
2022-08-09T04:33:51.953Z,16.30
2022-08-09T04:36:24.524Z,16.30
2022-08-09T04:38:52.257Z,16.30
2022-08-09T04:41:24.018Z,16.30
2022-08-09T04:44:04.950Z,16.20
2022-08-09T04:46:37.958Z,16.20
2022-08-09T04:49:30.113Z,16.20
2022-08-09T04:52:18.357Z,16.20
2022-08-09T04:54:51.743Z,16.20
2022-08-09T04:57:21.586Z,16.20
2022-08-09T04:59:56.344Z,16.20
2022-08-09T05:02:27.496Z,16.20
2022-08-09T05:04:55.592Z,16.20
2022-08-09T05:07:23.644Z,16.20
2022-08-09T05:09:51.298Z,16.20
2022-08-09T05:12:18.584Z,16.20
2022-08-09T05:14:49.653Z,16.20
2022-08-09T05:18:39.039Z,16.20
2022-08-09T05:20:05.314Z,16.30
2022-08-09T05:22:35.047Z,16.20
2022-08-09T05:25:20.074Z,16.30
2022-08-09T05:27:48.502Z,16.30
2022-08-09T05:30:17.841Z,16.30
2022-08-09T05:32:51.033Z,16.30
2022-08-09T05:35:21.985Z,16.30
2022-08-09T05:37:50.830Z,16.30
2022-08-09T05:40:18.388Z,16.40
2022-08-09T05:42:45.599Z,16.40
2022-08-09T05:45:14.329Z,16.40
2022-08-09T05:47:51.628Z,16.50
2022-08-09T05:50:39.891Z,16.50
2022-08-09T05:53:21.578Z,16.60
2022-08-09T05:55:58.902Z,16.60
2022-08-09T05:58:25.749Z,16.70
2022-08-09T06:00:53.780Z,16.70
2022-08-09T06:03:21.163Z,16.80
2022-08-09T06:05:57.734Z,16.80
2022-08-09T06:08:33.405Z,16.90
2022-08-09T06:11:00.859Z,16.90
2022-08-09T06:13:33.847Z,16.90
2022-08-09T06:16:04.827Z,17.00
2022-08-09T06:18:33.476Z,17.00
2022-08-09T06:21:00.567Z,17.00
2022-08-09T06:23:57.809Z,17.10
2022-08-09T06:26:22.476Z,17.10
2022-08-09T06:28:59.880Z,17.20
2022-08-09T06:31:30.708Z,17.20
2022-08-09T06:33:58.521Z,17.30
2022-08-09T06:36:27.300Z,17.40
2022-08-09T06:38:56.941Z,17.40
2022-08-09T06:41:39.620Z,17.50
2022-08-09T06:44:14.348Z,17.60
2022-08-09T06:46:45.752Z,17.60
2022-08-09T06:49:12.811Z,17.70
2022-08-09T06:51:43.052Z,17.80
2022-08-09T06:54:14.979Z,17.90
2022-08-09T06:56:45.436Z,17.90
2022-08-09T07:00:50.101Z,18.00
2022-08-09T07:02:04.667Z,18.10
2022-08-09T07:04:34.887Z,18.20
2022-08-09T07:07:04.938Z,18.20
2022-08-09T07:09:54.874Z,18.30
2022-08-09T07:12:18.814Z,18.60
2022-08-09T07:14:51.188Z,19.60
2022-08-09T07:17:19.943Z,20.90
2022-08-09T07:19:48.072Z,22.20
2022-08-09T07:22:18.944Z,23.40
2022-08-09T07:25:01.637Z,24.50
2022-08-09T07:27:34.478Z,25.50
2022-08-09T07:30:13.445Z,26.30
2022-08-09T07:32:41.314Z,27.00
2022-08-09T07:35:11.881Z,27.70
2022-08-09T07:37:45.635Z,28.30
2022-08-09T07:40:18.586Z,28.80
2022-08-09T07:42:54.928Z,29.40
2022-08-09T07:45:39.787Z,29.80
2022-08-09T07:48:25.243Z,30.20
2022-08-09T07:51:09.987Z,30.60
2022-08-09T07:54:06.552Z,30.80
2022-08-09T07:56:31.412Z,31.00
2022-08-09T07:58:59.591Z,31.20
2022-08-09T08:01:33.108Z,31.40
2022-08-09T08:04:04.797Z,31.40
2022-08-09T08:06:37.549Z,31.40
2022-08-09T08:09:39.948Z,31.30
2022-08-09T08:12:27.929Z,31.30
2022-08-09T08:14:57.101Z,31.20
2022-08-09T08:17:54.106Z,31.10
2022-08-09T08:20:13.858Z,31.00
2022-08-09T08:22:41.967Z,31.10
2022-08-09T08:25:13.622Z,31.10
2022-08-09T08:27:42.883Z,31.00
2022-08-09T08:30:12.010Z,30.80
2022-08-09T08:32:52.896Z,30.80
2022-08-09T08:35:22.349Z,30.80
2022-08-09T08:37:59.642Z,30.80
2022-08-09T08:40:33.513Z,30.80
2022-08-09T08:43:03.437Z,30.80
2022-08-09T08:45:53.309Z,30.90
2022-08-09T08:48:32.323Z,31.00
2022-08-09T08:51:00.094Z,31.10
2022-08-09T08:53:32.218Z,31.20
2022-08-09T08:56:06.897Z,31.20
2022-08-09T08:58:36.075Z,31.30
2022-08-09T09:01:09.165Z,31.40
2022-08-09T09:03:50.423Z,31.50
2022-08-09T09:06:18.513Z,31.60
2022-08-09T09:08:52.333Z,31.70
2022-08-09T09:11:20.609Z,31.70
2022-08-09T09:13:56.642Z,31.70
2022-08-09T09:16:35.082Z,31.70
2022-08-09T09:19:36.917Z,31.80
2022-08-09T09:22:02.973Z,31.70
2022-08-09T09:24:43.890Z,31.70
2022-08-09T09:28:03.018Z,31.80
2022-08-09T09:30:26.167Z,31.90
2022-08-09T09:33:15.339Z,32.00
2022-08-09T09:36:01.637Z,32.00
2022-08-09T09:38:58.256Z,32.00
2022-08-09T09:41:33.025Z,32.10
2022-08-09T09:44:10.641Z,32.30
2022-08-09T09:46:46.014Z,32.50
2022-08-09T09:49:23.617Z,32.70
2022-08-09T09:52:33.401Z,32.80
2022-08-09T09:55:24.004Z,32.80
2022-08-09T09:58:18.335Z,33.00
2022-08-09T10:00:58.949Z,33.10
2022-08-09T10:03:56.354Z,33.30
2022-08-09T10:06:27.413Z,33.40
2022-08-09T10:09:02.959Z,33.60
2022-08-09T10:12:00.015Z,33.70
2022-08-09T10:14:33.069Z,33.80
2022-08-09T10:17:24.302Z,34.10
2022-08-09T10:19:58.865Z,34.10
2022-08-09T10:22:33.497Z,34.20
2022-08-09T10:25:07.022Z,34.30
2022-08-09T10:27:45.292Z,34.40
2022-08-09T10:33:29.563Z,34.60
2022-08-09T10:36:03.474Z,34.70
2022-08-09T10:38:54.855Z,34.90
2022-08-09T10:41:20.693Z,34.90
2022-08-09T10:43:58.556Z,35.00
2022-08-09T10:46:52.332Z,34.90
2022-08-09T10:49:49.949Z,34.90
2022-08-09T10:52:34.726Z,34.90
2022-08-09T10:55:24.111Z,35.00
2022-08-09T10:57:55.478Z,35.00
2022-08-09T11:00:34.588Z,35.10
2022-08-09T11:03:18.624Z,35.20
2022-08-09T11:06:15.901Z,35.30
2022-08-09T11:08:53.104Z,35.40
2022-08-09T11:11:23.051Z,35.50
2022-08-09T11:14:28.174Z,35.60
2022-08-09T11:16:57.647Z,35.60
2022-08-09T11:20:10.964Z,35.70
2022-08-09T11:22:47.222Z,35.80
2022-08-09T11:25:47.947Z,35.90
2022-08-09T11:28:38.681Z,36.10
2022-08-09T11:31:49.850Z,36.20
2022-08-09T11:34:43.224Z,36.40
2022-08-09T11:37:18.306Z,36.50
2022-08-09T11:40:04.327Z,36.60
2022-08-09T11:42:53.198Z,36.60
2022-08-09T11:45:42.561Z,36.50
2022-08-09T11:48:26.733Z,36.50
2022-08-09T11:52:49.558Z,36.50
2022-08-09T11:53:59.966Z,36.40
2022-08-09T11:56:42.619Z,36.40
2022-08-09T11:59:30.402Z,36.50
2022-08-09T12:02:34.039Z,36.50
2022-08-09T12:04:58.953Z,36.50
2022-08-09T12:07:41.702Z,36.60
2022-08-09T12:10:14.155Z,36.70
2022-08-09T12:12:59.039Z,36.80
2022-08-09T12:15:48.643Z,36.80
2022-08-09T12:18:26.227Z,36.80
2022-08-09T12:21:00.554Z,36.80
2022-08-09T12:23:56.394Z,36.80
2022-08-09T12:26:25.880Z,36.80
2022-08-09T12:29:10.433Z,36.80
2022-08-09T12:32:02.258Z,36.80
2022-08-09T12:34:40.515Z,36.70
2022-08-09T12:37:23.912Z,36.70
2022-08-09T12:40:09.005Z,36.80
2022-08-09T12:42:36.522Z,36.90
2022-08-09T12:45:07.122Z,36.90
2022-08-09T12:47:53.932Z,37.00
2022-08-09T12:50:24.875Z,36.80
2022-08-09T12:53:07.978Z,36.50
2022-08-09T12:56:14.242Z,36.40
2022-08-09T12:58:24.244Z,36.50
2022-08-09T13:00:55.582Z,36.70
2022-08-09T13:03:56.921Z,36.80
2022-08-09T13:06:34.638Z,36.80
2022-08-09T13:09:31.180Z,36.80
2022-08-09T13:12:06.374Z,36.80
2022-08-09T13:14:40.942Z,36.70
2022-08-09T13:17:44.274Z,36.70
2022-08-09T13:20:14.068Z,36.50
2022-08-09T13:23:01.804Z,36.60
2022-08-09T13:25:54.410Z,36.50
2022-08-09T13:28:34.684Z,36.50
2022-08-09T13:32:13.912Z,36.40
2022-08-09T13:33:54.477Z,36.40
2022-08-09T13:36:39.552Z,36.50
2022-08-09T13:41:51.667Z,36.50
2022-08-09T13:42:10.958Z,36.50
2022-08-09T13:44:42.050Z,36.50
2022-08-09T13:47:29.012Z,36.50
2022-08-09T13:50:12.703Z,36.60
2022-08-09T13:52:54.246Z,36.60
2022-08-09T13:55:21.209Z,36.70
2022-08-09T13:57:56.161Z,36.60
2022-08-09T14:00:28.490Z,36.50
2022-08-09T14:03:16.930Z,36.50
2022-08-09T14:06:00.432Z,36.50
2022-08-09T14:08:30.349Z,36.50
2022-08-09T14:10:57.259Z,36.60
2022-08-09T14:14:15.540Z,36.60
2022-08-09T14:16:15.158Z,36.60
2022-08-09T14:18:45.876Z,36.60
2022-08-09T14:21:22.580Z,36.70
2022-08-09T14:23:54.056Z,36.60
2022-08-09T14:26:31.826Z,36.60
2022-08-09T14:29:25.831Z,36.60
2022-08-09T14:31:54.948Z,36.50
2022-08-09T14:34:31.955Z,36.60
2022-08-09T14:37:01.640Z,36.50
2022-08-09T14:39:39.957Z,36.50
2022-08-09T14:42:30.260Z,36.30
2022-08-09T14:45:01.493Z,36.10
2022-08-09T14:47:56.856Z,36.00
2022-08-09T14:50:26.080Z,35.90
2022-08-09T14:52:53.928Z,35.70
2022-08-09T14:55:21.621Z,35.50
2022-08-09T14:57:49.421Z,35.20
2022-08-09T15:00:17.241Z,35.10
2022-08-09T15:02:47.468Z,35.00
2022-08-09T15:05:17.007Z,34.90
2022-08-09T15:07:45.495Z,34.70
2022-08-09T15:10:24.790Z,34.60
2022-08-09T15:12:53.372Z,34.50
2022-08-09T15:15:20.461Z,34.30
2022-08-09T15:17:52.576Z,34.10
2022-08-09T15:22:01.174Z,33.90
2022-08-09T15:24:03.579Z,33.70
2022-08-09T15:25:58.244Z,33.50
2022-08-09T15:28:27.747Z,33.40
2022-08-09T15:31:10.124Z,33.40
2022-08-09T15:34:17.440Z,33.30
2022-08-09T15:36:29.335Z,33.30
2022-08-09T15:38:58.988Z,33.20
2022-08-09T15:41:31.811Z,33.10
2022-08-09T15:44:02.088Z,33.20
2022-08-09T15:46:34.003Z,33.20
2022-08-09T15:49:21.657Z,33.30
2022-08-09T15:52:05.088Z,33.40
2022-08-09T15:54:52.245Z,33.40
2022-08-09T15:57:34.711Z,33.50
2022-08-09T16:00:32.144Z,33.60
2022-08-09T16:02:59.157Z,33.50
2022-08-09T16:05:53.050Z,33.50
2022-08-09T16:08:30.749Z,33.40
2022-08-09T16:11:02.358Z,33.40
2022-08-09T16:14:06.094Z,33.40
2022-08-09T16:16:18.976Z,33.30
2022-08-09T16:18:47.185Z,33.20
2022-08-09T16:21:17.066Z,33.20
2022-08-09T16:23:54.923Z,33.10
2022-08-09T16:26:34.629Z,33.00
2022-08-09T16:29:11.219Z,32.80
2022-08-09T16:32:18.708Z,32.80
2022-08-09T16:34:54.379Z,32.70
2022-08-09T16:37:17.775Z,32.60
2022-08-09T16:39:54.790Z,32.60
2022-08-09T16:42:31.567Z,32.50
2022-08-09T16:44:58.312Z,32.50
2022-08-09T16:48:39.961Z,32.40
2022-08-09T16:50:31.646Z,32.30
2022-08-09T16:53:05.851Z,32.20
2022-08-09T16:55:59.859Z,32.10
2022-08-09T16:58:21.085Z,32.00
2022-08-09T17:00:48.562Z,31.90
2022-08-09T17:03:21.671Z,31.80
2022-08-09T17:06:07.903Z,31.60
2022-08-09T17:08:44.724Z,31.50
2022-08-09T17:11:40.133Z,31.30
2022-08-09T17:14:25.467Z,31.10
2022-08-09T17:16:59.923Z,30.90
2022-08-09T17:19:46.554Z,30.80
2022-08-09T17:22:14.501Z,30.60
2022-08-09T17:24:47.901Z,30.50
2022-08-09T17:27:22.145Z,30.40
2022-08-09T17:29:50.619Z,30.30
2022-08-09T17:32:20.441Z,30.20
2022-08-09T17:35:00.962Z,30.00
2022-08-09T17:38:14.445Z,29.90
2022-08-09T17:40:21.573Z,29.80
2022-08-09T17:42:59.514Z,29.60
2022-08-09T17:45:45.516Z,29.50
2022-08-09T17:48:17.375Z,29.40
2022-08-09T17:50:56.433Z,29.30
2022-08-09T17:53:26.232Z,29.20
2022-08-09T17:55:57.623Z,29.10
2022-08-09T17:58:27.894Z,29.00
2022-08-09T18:00:58.282Z,28.90
2022-08-09T18:03:26.410Z,28.90
2022-08-09T18:05:57.288Z,28.80
2022-08-09T18:08:28.143Z,28.70
2022-08-09T18:11:02.379Z,28.60
2022-08-09T18:13:38.925Z,28.50
2022-08-09T18:16:30.421Z,28.40
2022-08-09T18:19:03.852Z,28.30
2022-08-09T18:21:50.210Z,28.20
2022-08-09T18:24:17.989Z,28.10
2022-08-09T18:26:46.637Z,28.00
2022-08-09T18:30:38.341Z,27.90
2022-08-09T18:32:05.463Z,27.80
2022-08-09T18:34:35.460Z,27.70
2022-08-09T18:37:10.176Z,27.60
2022-08-09T18:39:53.612Z,27.50
2022-08-09T18:42:21.185Z,27.40
2022-08-09T18:44:57.089Z,27.30
2022-08-09T18:47:37.364Z,27.20
2022-08-09T18:50:05.912Z,27.10
2022-08-09T18:52:35.127Z,27.00
2022-08-09T18:55:06.246Z,26.90
2022-08-09T18:57:43.530Z,26.80
2022-08-09T19:00:19.178Z,26.70
2022-08-09T19:02:48.611Z,26.60
2022-08-09T19:05:48.767Z,26.50
2022-08-09T19:08:10.149Z,26.40
2022-08-09T19:10:39.133Z,26.30
2022-08-09T19:13:19.764Z,26.20
2022-08-09T19:15:50.116Z,26.10
2022-08-09T19:18:35.048Z,26.00
2022-08-09T19:21:09.945Z,25.80
2022-08-09T19:24:35.416Z,25.70
2022-08-09T19:26:31.288Z,25.70
2022-08-09T19:29:09.389Z,25.60
2022-08-09T19:31:45.657Z,25.50
2022-08-09T19:34:21.582Z,25.40
2022-08-09T19:36:59.281Z,25.30
2022-08-09T19:39:43.478Z,25.30
2022-08-09T19:42:19.692Z,25.20
2022-08-09T19:44:51.464Z,25.00
2022-08-09T19:47:23.768Z,25.00
2022-08-09T19:50:09.218Z,24.90
2022-08-09T19:52:51.715Z,24.80
2022-08-09T19:55:30.786Z,24.70
2022-08-09T19:58:16.392Z,24.60
2022-08-09T20:00:45.629Z,24.60
2022-08-09T20:04:23.696Z,24.50
2022-08-09T20:05:59.830Z,24.40
2022-08-09T20:08:35.148Z,24.30
2022-08-09T20:11:04.118Z,24.20
2022-08-09T20:13:36.774Z,24.20
2022-08-09T20:16:33.819Z,24.10
2022-08-09T20:19:42.880Z,24.00
2022-08-09T20:21:57.002Z,23.90
2022-08-09T20:24:31.686Z,23.80
2022-08-09T20:27:02.368Z,23.70
2022-08-09T20:29:36.981Z,23.60
2022-08-09T20:32:31.225Z,23.60
2022-08-09T20:34:55.046Z,23.50
2022-08-09T20:37:23.278Z,23.40
2022-08-09T20:40:15.015Z,23.30
2022-08-09T20:42:38.016Z,23.20
2022-08-09T20:45:56.662Z,23.20
2022-08-09T20:47:53.283Z,23.20
2022-08-09T20:50:47.054Z,23.10
2022-08-09T20:53:18.601Z,23.00
2022-08-09T20:56:00.816Z,22.90
2022-08-09T20:58:32.512Z,22.90
2022-08-09T21:01:13.982Z,22.80
2022-08-09T21:05:48.461Z,22.80
2022-08-09T21:06:35.832Z,22.70
2022-08-09T21:09:03.338Z,22.60
2022-08-09T21:14:18.125Z,22.60
2022-08-09T21:16:45.621Z,22.50
2022-08-09T21:20:18.482Z,22.50
2022-08-09T21:22:00.177Z,22.50
2022-08-09T21:24:32.751Z,22.40
2022-08-09T21:27:10.447Z,22.40
2022-08-09T21:29:49.255Z,22.40
2022-08-09T21:32:18.739Z,22.30
2022-08-09T21:34:49.200Z,22.20
2022-08-09T21:37:17.978Z,22.20
2022-08-09T21:39:49.683Z,22.10
2022-08-09T21:42:17.386Z,22.10
2022-08-09T21:44:57.425Z,22.10
2022-08-09T21:47:27.400Z,22.10
2022-08-09T21:49:57.173Z,22.00
2022-08-09T21:52:24.128Z,22.00
2022-08-09T21:55:02.970Z,22.00
2022-08-09T21:57:38.611Z,21.90
2022-08-09T22:00:26.196Z,21.90
2022-08-09T22:02:58.093Z,21.80
2022-08-09T22:05:35.410Z,21.80
2022-08-09T22:08:06.263Z,21.80
2022-08-09T22:10:34.141Z,21.70
2022-08-09T22:13:07.470Z,21.70
2022-08-09T22:15:39.200Z,21.60
2022-08-09T22:18:08.296Z,21.60
2022-08-09T22:20:40.067Z,21.50
2022-08-09T22:23:10.582Z,21.50
2022-08-09T22:26:06.309Z,21.40
2022-08-09T22:28:32.407Z,21.40
2022-08-09T22:31:00.310Z,21.30
2022-08-09T22:33:37.447Z,21.30
2022-08-09T22:36:13.761Z,21.20
2022-08-09T22:38:46.488Z,21.20
2022-08-09T22:41:13.262Z,21.20
2022-08-09T22:44:01.665Z,21.10
2022-08-09T22:48:18.731Z,21.10
2022-08-09T22:49:14.074Z,21.00
2022-08-09T22:51:49.628Z,21.00
2022-08-09T22:54:23.586Z,21.00
2022-08-09T22:56:56.797Z,20.90
2022-08-09T22:59:56.774Z,20.90
2022-08-09T23:02:15.170Z,20.80
2022-08-09T23:04:53.990Z,20.80
2022-08-09T23:08:23.215Z,20.80
2022-08-09T23:10:27.959Z,20.70
2022-08-09T23:12:54.808Z,20.70
2022-08-09T23:15:21.694Z,20.60
2022-08-09T23:17:48.452Z,20.60
2022-08-09T23:20:15.343Z,20.60
2022-08-09T23:22:42.080Z,20.50
2022-08-09T23:25:09.350Z,20.50
2022-08-09T23:27:36.653Z,20.50
2022-08-09T23:30:23.380Z,20.40
2022-08-09T23:32:50.180Z,20.40
2022-08-09T23:35:17.193Z,20.40
2022-08-09T23:37:44.026Z,20.30
2022-08-09T23:40:11.414Z,20.30
2022-08-09T23:42:38.237Z,20.20
2022-08-09T23:45:08.844Z,20.20
2022-08-09T23:47:35.769Z,20.10
2022-08-09T23:50:02.569Z,20.10
2022-08-09T23:52:29.379Z,20.00
2022-08-09T23:54:57.695Z,20.00
2022-08-09T23:57:24.408Z,19.90
